Comandante Gustavo Kraemer Airport
SBBG : rendu visible

Aérodrome :











RETROUVEZ-NOUS SUR...

 
LOGIN :

S'inscrire | Disclaimer

   EN    FR    IT 

 









Légende :    VFR   VFR Marginal   IFR   IFR Intensif   IFR Très Intensif
Visi : 
Plafond : 
>= 8 km
>= 3000ft
5 à 8 km
1000 à 3000 ft
1500m à 5 km
500 à 1000 ft
800 à 1500m
200 à 500 ft
< 800m
< 200 ft
Symboles :   Orages  Brouillard  Fortes neiges  Fortes précipitations  Vent > 20 kt






- Altitude de l'aérodrome : 600 ft
- Code IATA : BGX


SBBG - Comandante Gustavo Kraemer

DERNIER METAR :
  • 041000Z AUTO 36002KT CAVOK 08/08 Q1014

METARs EXPIRÉS :
  • 040900Z AUTO VRB01KT CAVOK 10/10 Q1014
  • 040810Z AUTO 00000KT 0800 -RA FG FEW011 10/09 Q1013
  • 040800Z AUTO VRB01KT 4000 -RA NSC 10/09 Q1013

TAF TAF SBBG
Valide du 04 à 06h jusqu'au 05 à 06h UTC


040300Z 0406/0506 23007KT 8000 SCT020 TN18/0408Z TX32/0418Z
PROB30 0407/0411 4000 BR BKN007
BECMG 0415/0417 SCT015 RMK PEA



MET'MAP, la Météo Aéronautique d'un coup d'oeil ! - Copyright ORBIFLY Décembre 2007 - Disclaimer

ORBIFLY MET'MAP TEAM :

Programmation & Développement : Alexandra Zaïnal
Sur une idée originale de : Baudouin d'Aumeries
Assistance à la programmation : Marc-Olivier Méhu
Soutien technique & logistique : Manuel Goepfert

Contact : metmap@orbifly.com




SOURCES & CREDITS :

   NOAA       Earth
Advisory